sensor_id;sensor_type;location;lat;lon;timestamp;temperature;humidity
44747;DHT22;30472;49.490;10.972;2023-09-18T00:02:07;16.90;99.90
44747;DHT22;30472;49.490;10.972;2023-09-18T00:04:32;17.00;99.90
44747;DHT22;30472;49.490;10.972;2023-09-18T00:06:59;16.90;99.90
44747;DHT22;30472;49.490;10.972;2023-09-18T00:09:24;16.90;99.90
44747;DHT22;30472;49.490;10.972;2023-09-18T00:11:50;16.90;99.90
44747;DHT22;30472;49.490;10.972;2023-09-18T00:14:16;16.90;99.90
44747;DHT22;30472;49.490;10.972;2023-09-18T00:16:41;16.90;99.90
44747;DHT22;30472;49.490;10.972;2023-09-18T00:19:07;16.90;99.90
44747;DHT22;30472;49.490;10.972;2023-09-18T00:21:33;16.80;99.90
44747;DHT22;30472;49.490;10.972;2023-09-18T00:23:59;16.70;99.90
44747;DHT22;30472;49.490;10.972;2023-09-18T00:26:25;16.60;99.90
44747;DHT22;30472;49.490;10.972;2023-09-18T00:28:51;16.50;99.90
44747;DHT22;30472;49.490;10.972;2023-09-18T00:31:16;16.40;99.90
44747;DHT22;30472;49.490;10.972;2023-09-18T00:33:42;16.30;99.90
44747;DHT22;30472;49.490;10.972;2023-09-18T00:36:08;16.30;99.90
44747;DHT22;30472;49.490;10.972;2023-09-18T00:38:33;16.20;99.90
44747;DHT22;30472;49.490;10.972;2023-09-18T00:40:59;16.20;99.90
44747;DHT22;30472;49.490;10.972;2023-09-18T00:43:24;16.30;99.90
44747;DHT22;30472;49.490;10.972;2023-09-18T00:45:50;16.40;99.90
44747;DHT22;30472;49.490;10.972;2023-09-18T00:48:16;16.30;99.90
44747;DHT22;30472;49.490;10.972;2023-09-18T00:50:45;16.40;99.90
44747;DHT22;30472;49.490;10.972;2023-09-18T00:53:16;16.30;99.90
44747;DHT22;30472;49.490;10.972;2023-09-18T00:55:42;16.30;99.90
44747;DHT22;30472;49.490;10.972;2023-09-18T00:58:08;16.20;99.90
44747;DHT22;30472;49.490;10.972;2023-09-18T01:00:35;16.20;99.90
44747;DHT22;30472;49.490;10.972;2023-09-18T01:03:01;16.20;99.90
44747;DHT22;30472;49.490;10.972;2023-09-18T01:05:33;16.20;99.90
44747;DHT22;30472;49.490;10.972;2023-09-18T01:07:59;16.10;99.90
44747;DHT22;30472;49.490;10.972;2023-09-18T01:10:30;16.20;99.90
44747;DHT22;30472;49.490;10.972;2023-09-18T01:13:04;16.30;99.90
44747;DHT22;30472;49.490;10.972;2023-09-18T01:15:37;16.30;99.90
44747;DHT22;30472;49.490;10.972;2023-09-18T01:18:08;16.30;99.90
44747;DHT22;30472;49.490;10.972;2023-09-18T01:20:34;16.10;99.90
44747;DHT22;30472;49.490;10.972;2023-09-18T01:22:59;16.10;99.90
44747;DHT22;30472;49.490;10.972;2023-09-18T01:25:25;16.10;99.90
44747;DHT22;30472;49.490;10.972;2023-09-18T01:27:51;16.10;99.90
44747;DHT22;30472;49.490;10.972;2023-09-18T01:30:17;16.10;99.90
44747;DHT22;30472;49.490;10.972;2023-09-18T01:32:44;15.90;99.90
44747;DHT22;30472;49.490;10.972;2023-09-18T01:35:11;15.90;99.90
44747;DHT22;30472;49.490;10.972;2023-09-18T01:37:37;15.80;99.90
44747;DHT22;30472;49.490;10.972;2023-09-18T01:40:07;15.80;99.90
44747;DHT22;30472;49.490;10.972;2023-09-18T01:42:34;15.70;99.90
44747;DHT22;30472;49.490;10.972;2023-09-18T01:45:00;15.70;99.90
44747;DHT22;30472;49.490;10.972;2023-09-18T01:47:26;15.60;99.90
44747;DHT22;30472;49.490;10.972;2023-09-18T01:49:55;15.60;99.90
44747;DHT22;30472;49.490;10.972;2023-09-18T01:52:20;15.50;99.90
44747;DHT22;30472;49.490;10.972;2023-09-18T01:54:46;15.50;99.90
44747;DHT22;30472;49.490;10.972;2023-09-18T01:57:12;15.40;99.90
44747;DHT22;30472;49.490;10.972;2023-09-18T01:59:38;15.50;99.90
44747;DHT22;30472;49.490;10.972;2023-09-18T02:02:05;15.40;99.90
44747;DHT22;30472;49.490;10.972;2023-09-18T02:04:32;15.30;99.90
44747;DHT22;30472;49.490;10.972;2023-09-18T02:06:58;15.40;99.90
44747;DHT22;30472;49.490;10.972;2023-09-18T02:09:24;15.30;99.90
44747;DHT22;30472;49.490;10.972;2023-09-18T02:11:49;15.30;99.90
44747;DHT22;30472;49.490;10.972;2023-09-18T02:14:15;15.30;99.90
44747;DHT22;30472;49.490;10.972;2023-09-18T02:16:41;15.40;99.90
44747;DHT22;30472;49.490;10.972;2023-09-18T02:19:08;15.40;99.90
44747;DHT22;30472;49.490;10.972;2023-09-18T02:21:34;15.40;99.90
44747;DHT22;30472;49.490;10.972;2023-09-18T02:24:00;15.30;99.90
44747;DHT22;30472;49.490;10.972;2023-09-18T02:26:26;15.40;99.90
44747;DHT22;30472;49.490;10.972;2023-09-18T02:28:52;15.30;99.90
44747;DHT22;30472;49.490;10.972;2023-09-18T02:31:19;15.30;99.90
44747;DHT22;30472;49.490;10.972;2023-09-18T02:33:44;15.40;99.90
44747;DHT22;30472;49.490;10.972;2023-09-18T02:36:10;15.40;99.90
44747;DHT22;30472;49.490;10.972;2023-09-18T02:38:36;15.50;99.90
44747;DHT22;30472;49.490;10.972;2023-09-18T02:41:02;15.50;99.90
44747;DHT22;30472;49.490;10.972;2023-09-18T02:43:27;15.50;99.90
44747;DHT22;30472;49.490;10.972;2023-09-18T02:45:53;15.50;99.90
44747;DHT22;30472;49.490;10.972;2023-09-18T02:48:19;15.40;99.90
44747;DHT22;30472;49.490;10.972;2023-09-18T02:50:45;15.30;99.90
44747;DHT22;30472;49.490;10.972;2023-09-18T02:53:24;15.30;99.90
44747;DHT22;30472;49.490;10.972;2023-09-18T02:55:52;15.20;99.90
44747;DHT22;30472;49.490;10.972;2023-09-18T02:58:19;15.20;99.90
44747;DHT22;30472;49.490;10.972;2023-09-18T03:00:47;15.10;99.90
44747;DHT22;30472;49.490;10.972;2023-09-18T03:03:13;15.10;99.90
44747;DHT22;30472;49.490;10.972;2023-09-18T03:05:40;15.10;99.90
44747;DHT22;30472;49.490;10.972;2023-09-18T03:08:06;15.00;99.90
44747;DHT22;30472;49.490;10.972;2023-09-18T03:10:40;15.10;99.90
44747;DHT22;30472;49.490;10.972;2023-09-18T03:13:08;15.10;99.90
44747;DHT22;30472;49.490;10.972;2023-09-18T03:15:34;15.10;99.90
44747;DHT22;30472;49.490;10.972;2023-09-18T03:18:00;15.20;99.90
44747;DHT22;30472;49.490;10.972;2023-09-18T03:20:27;15.20;99.90
44747;DHT22;30472;49.490;10.972;2023-09-18T03:22:55;15.10;99.90
44747;DHT22;30472;49.490;10.972;2023-09-18T03:25:21;15.20;99.90
44747;DHT22;30472;49.490;10.972;2023-09-18T03:27:54;15.30;99.90
44747;DHT22;30472;49.490;10.972;2023-09-18T03:30:21;15.40;99.90
44747;DHT22;30472;49.490;10.972;2023-09-18T03:32:49;15.30;99.90
44747;DHT22;30472;49.490;10.972;2023-09-18T03:35:14;15.50;99.90
44747;DHT22;30472;49.490;10.972;2023-09-18T03:37:44;15.40;99.90
44747;DHT22;30472;49.490;10.972;2023-09-18T03:40:10;15.30;99.90
44747;DHT22;30472;49.490;10.972;2023-09-18T03:42:36;15.30;99.90
44747;DHT22;30472;49.490;10.972;2023-09-18T03:45:02;15.20;99.90
44747;DHT22;30472;49.490;10.972;2023-09-18T03:47:28;15.10;99.90
44747;DHT22;30472;49.490;10.972;2023-09-18T03:49:54;15.10;99.90
44747;DHT22;30472;49.490;10.972;2023-09-18T03:52:19;15.00;99.90
44747;DHT22;30472;49.490;10.972;2023-09-18T03:54:45;15.00;99.90
44747;DHT22;30472;49.490;10.972;2023-09-18T03:57:11;15.00;99.90
44747;DHT22;30472;49.490;10.972;2023-09-18T03:59:36;14.90;99.90
44747;DHT22;30472;49.490;10.972;2023-09-18T04:02:02;14.90;99.90
44747;DHT22;30472;49.490;10.972;2023-09-18T04:04:29;14.90;99.90
44747;DHT22;30472;49.490;10.972;2023-09-18T04:06:54;14.80;99.90
44747;DHT22;30472;49.490;10.972;2023-09-18T04:09:20;14.90;99.90
44747;DHT22;30472;49.490;10.972;2023-09-18T04:11:45;14.80;99.90
44747;DHT22;30472;49.490;10.972;2023-09-18T04:14:11;14.80;99.90
44747;DHT22;30472;49.490;10.972;2023-09-18T04:16:36;14.80;99.90
44747;DHT22;30472;49.490;10.972;2023-09-18T04:19:03;14.80;99.90
44747;DHT22;30472;49.490;10.972;2023-09-18T04:21:28;14.80;99.90
44747;DHT22;30472;49.490;10.972;2023-09-18T04:23:57;15.00;99.90
44747;DHT22;30472;49.490;10.972;2023-09-18T04:26:27;15.00;99.90
44747;DHT22;30472;49.490;10.972;2023-09-18T04:28:56;15.20;99.90
44747;DHT22;30472;49.490;10.972;2023-09-18T04:31:22;15.40;99.90
44747;DHT22;30472;49.490;10.972;2023-09-18T04:33:48;15.50;99.90
44747;DHT22;30472;49.490;10.972;2023-09-18T04:36:13;15.60;99.90
44747;DHT22;30472;49.490;10.972;2023-09-18T04:38:39;15.60;99.90
44747;DHT22;30472;49.490;10.972;2023-09-18T04:41:05;15.60;99.90
44747;DHT22;30472;49.490;10.972;2023-09-18T04:43:33;15.60;99.90
44747;DHT22;30472;49.490;10.972;2023-09-18T04:46:00;15.70;99.90
44747;DHT22;30472;49.490;10.972;2023-09-18T04:48:27;15.80;99.90
44747;DHT22;30472;49.490;10.972;2023-09-18T04:50:53;15.90;99.90
44747;DHT22;30472;49.490;10.972;2023-09-18T04:53:18;15.90;99.90
44747;DHT22;30472;49.490;10.972;2023-09-18T04:55:45;15.90;99.90
44747;DHT22;30472;49.490;10.972;2023-09-18T04:58:14;15.90;99.90
44747;DHT22;30472;49.490;10.972;2023-09-18T05:00:40;16.00;99.90
44747;DHT22;30472;49.490;10.972;2023-09-18T05:03:06;16.10;99.90
44747;DHT22;30472;49.490;10.972;2023-09-18T05:05:34;16.10;99.90
44747;DHT22;30472;49.490;10.972;2023-09-18T05:08:01;16.10;99.90
44747;DHT22;30472;49.490;10.972;2023-09-18T05:10:26;16.10;99.90
44747;DHT22;30472;49.490;10.972;2023-09-18T05:12:52;16.10;99.90
44747;DHT22;30472;49.490;10.972;2023-09-18T05:15:24;16.20;99.90
44747;DHT22;30472;49.490;10.972;2023-09-18T05:17:51;16.10;99.90
44747;DHT22;30472;49.490;10.972;2023-09-18T05:20:21;16.10;99.90
44747;DHT22;30472;49.490;10.972;2023-09-18T05:22:50;16.20;99.90
44747;DHT22;30472;49.490;10.972;2023-09-18T05:25:18;16.20;99.90
44747;DHT22;30472;49.490;10.972;2023-09-18T05:27:44;16.20;99.90
44747;DHT22;30472;49.490;10.972;2023-09-18T05:30:14;16.30;99.90
44747;DHT22;30472;49.490;10.972;2023-09-18T05:32:44;16.30;99.90
44747;DHT22;30472;49.490;10.972;2023-09-18T05:35:11;16.50;99.90
44747;DHT22;30472;49.490;10.972;2023-09-18T05:37:38;16.60;99.90
44747;DHT22;30472;49.490;10.972;2023-09-18T05:40:06;16.70;99.90
44747;DHT22;30472;49.490;10.972;2023-09-18T05:42:35;16.80;99.90
44747;DHT22;30472;49.490;10.972;2023-09-18T05:45:00;16.80;99.90
44747;DHT22;30472;49.490;10.972;2023-09-18T05:47:26;16.90;99.90
44747;DHT22;30472;49.490;10.972;2023-09-18T05:49:52;17.10;99.90
44747;DHT22;30472;49.490;10.972;2023-09-18T05:52:17;17.20;99.90
44747;DHT22;30472;49.490;10.972;2023-09-18T05:54:43;17.30;99.90
44747;DHT22;30472;49.490;10.972;2023-09-18T05:57:08;17.40;99.90
44747;DHT22;30472;49.490;10.972;2023-09-18T05:59:34;17.50;99.90
44747;DHT22;30472;49.490;10.972;2023-09-18T06:02:00;17.40;99.90
44747;DHT22;30472;49.490;10.972;2023-09-18T06:04:25;17.50;99.90
44747;DHT22;30472;49.490;10.972;2023-09-18T06:06:51;17.50;99.90
44747;DHT22;30472;49.490;10.972;2023-09-18T06:09:16;17.60;99.90
44747;DHT22;30472;49.490;10.972;2023-09-18T06:11:42;17.60;99.90
44747;DHT22;30472;49.490;10.972;2023-09-18T06:14:08;17.70;99.90
44747;DHT22;30472;49.490;10.972;2023-09-18T06:16:33;17.80;99.90
44747;DHT22;30472;49.490;10.972;2023-09-18T06:18:59;17.80;99.90
44747;DHT22;30472;49.490;10.972;2023-09-18T06:21:25;17.90;99.90
44747;DHT22;30472;49.490;10.972;2023-09-18T06:23:51;17.90;99.90
44747;DHT22;30472;49.490;10.972;2023-09-18T06:26:18;18.00;99.90
44747;DHT22;30472;49.490;10.972;2023-09-18T06:28:43;18.00;99.90
44747;DHT22;30472;49.490;10.972;2023-09-18T06:31:10;18.00;99.90
44747;DHT22;30472;49.490;10.972;2023-09-18T06:33:36;18.10;99.90
44747;DHT22;30472;49.490;10.972;2023-09-18T06:36:02;18.00;99.90
44747;DHT22;30472;49.490;10.972;2023-09-18T06:38:28;18.10;99.90
44747;DHT22;30472;49.490;10.972;2023-09-18T06:40:54;18.30;99.90
44747;DHT22;30472;49.490;10.972;2023-09-18T06:43:20;18.40;99.90
44747;DHT22;30472;49.490;10.972;2023-09-18T06:45:46;18.60;99.90
44747;DHT22;30472;49.490;10.972;2023-09-18T06:48:11;18.70;99.90
44747;DHT22;30472;49.490;10.972;2023-09-18T06:50:39;18.80;99.90
44747;DHT22;30472;49.490;10.972;2023-09-18T06:53:05;18.90;99.90
44747;DHT22;30472;49.490;10.972;2023-09-18T06:55:30;19.00;99.90
44747;DHT22;30472;49.490;10.972;2023-09-18T06:57:56;19.00;99.90
44747;DHT22;30472;49.490;10.972;2023-09-18T07:00:22;19.00;99.90
44747;DHT22;30472;49.490;10.972;2023-09-18T07:02:48;19.10;99.90
44747;DHT22;30472;49.490;10.972;2023-09-18T07:05:14;19.40;99.90
44747;DHT22;30472;49.490;10.972;2023-09-18T07:07:40;19.60;99.90
44747;DHT22;30472;49.490;10.972;2023-09-18T07:10:06;19.80;99.90
44747;DHT22;30472;49.490;10.972;2023-09-18T07:12:32;20.10;99.90
44747;DHT22;30472;49.490;10.972;2023-09-18T07:15:01;20.20;99.90
44747;DHT22;30472;49.490;10.972;2023-09-18T07:17:30;20.50;99.90
44747;DHT22;30472;49.490;10.972;2023-09-18T07:19:56;20.80;99.90
44747;DHT22;30472;49.490;10.972;2023-09-18T07:22:21;21.20;99.90
44747;DHT22;30472;49.490;10.972;2023-09-18T07:24:47;21.10;99.90
44747;DHT22;30472;49.490;10.972;2023-09-18T07:27:12;21.40;99.90
44747;DHT22;30472;49.490;10.972;2023-09-18T07:29:38;21.90;99.90
44747;DHT22;30472;49.490;10.972;2023-09-18T07:32:04;22.30;99.90
44747;DHT22;30472;49.490;10.972;2023-09-18T07:34:30;22.50;99.90
44747;DHT22;30472;49.490;10.972;2023-09-18T07:36:55;22.90;99.90
44747;DHT22;30472;49.490;10.972;2023-09-18T07:39:22;23.20;99.90
44747;DHT22;30472;49.490;10.972;2023-09-18T07:41:47;23.50;99.90
44747;DHT22;30472;49.490;10.972;2023-09-18T07:44:19;23.80;99.90
44747;DHT22;30472;49.490;10.972;2023-09-18T07:46:46;23.70;99.90
44747;DHT22;30472;49.490;10.972;2023-09-18T07:49:11;24.00;99.90
44747;DHT22;30472;49.490;10.972;2023-09-18T07:51:37;24.20;99.90
44747;DHT22;30472;49.490;10.972;2023-09-18T07:54:03;24.50;99.90
44747;DHT22;30472;49.490;10.972;2023-09-18T07:56:29;24.80;99.90
44747;DHT22;30472;49.490;10.972;2023-09-18T07:58:56;24.40;99.90
44747;DHT22;30472;49.490;10.972;2023-09-18T08:01:22;25.30;99.90
44747;DHT22;30472;49.490;10.972;2023-09-18T08:03:48;25.20;99.90
44747;DHT22;30472;49.490;10.972;2023-09-18T08:06:14;25.00;99.90
44747;DHT22;30472;49.490;10.972;2023-09-18T08:08:44;25.50;99.90
44747;DHT22;30472;49.490;10.972;2023-09-18T08:11:10;26.10;99.90
44747;DHT22;30472;49.490;10.972;2023-09-18T08:13:35;26.20;99.90
44747;DHT22;30472;49.490;10.972;2023-09-18T08:16:02;26.30;99.90
44747;DHT22;30472;49.490;10.972;2023-09-18T08:18:29;26.50;99.90
44747;DHT22;30472;49.490;10.972;2023-09-18T08:20:55;26.70;99.90
44747;DHT22;30472;49.490;10.972;2023-09-18T08:23:23;26.30;99.90
44747;DHT22;30472;49.490;10.972;2023-09-18T08:25:49;26.20;99.90
44747;DHT22;30472;49.490;10.972;2023-09-18T08:28:16;25.90;99.90
44747;DHT22;30472;49.490;10.972;2023-09-18T08:30:42;25.30;99.90
44747;DHT22;30472;49.490;10.972;2023-09-18T08:33:15;25.30;99.90
44747;DHT22;30472;49.490;10.972;2023-09-18T08:35:41;25.50;99.90
44747;DHT22;30472;49.490;10.972;2023-09-18T08:38:06;25.60;99.90
44747;DHT22;30472;49.490;10.972;2023-09-18T08:40:33;25.30;99.90
44747;DHT22;30472;49.490;10.972;2023-09-18T08:42:59;25.30;99.90
44747;DHT22;30472;49.490;10.972;2023-09-18T08:45:42;25.60;99.90
44747;DHT22;30472;49.490;10.972;2023-09-18T08:48:09;26.30;99.90
44747;DHT22;30472;49.490;10.972;2023-09-18T08:50:36;26.60;99.90
44747;DHT22;30472;49.490;10.972;2023-09-18T08:53:03;27.30;99.90
44747;DHT22;30472;49.490;10.972;2023-09-18T08:55:29;27.90;99.90
44747;DHT22;30472;49.490;10.972;2023-09-18T08:57:56;28.50;99.90
44747;DHT22;30472;49.490;10.972;2023-09-18T09:00:23;28.30;99.90
44747;DHT22;30472;49.490;10.972;2023-09-18T09:02:48;28.20;99.90
44747;DHT22;30472;49.490;10.972;2023-09-18T09:05:16;27.60;99.90
44747;DHT22;30472;49.490;10.972;2023-09-18T09:07:42;27.80;99.90
44747;DHT22;30472;49.490;10.972;2023-09-18T09:10:08;26.60;99.90
44747;DHT22;30472;49.490;10.972;2023-09-18T09:12:56;26.80;99.90
44747;DHT22;30472;49.490;10.972;2023-09-18T09:15:27;26.60;99.90
44747;DHT22;30472;49.490;10.972;2023-09-18T09:18:07;26.20;99.90
44747;DHT22;30472;49.490;10.972;2023-09-18T09:20:33;26.20;99.90
44747;DHT22;30472;49.490;10.972;2023-09-18T09:23:02;26.10;99.90
44747;DHT22;30472;49.490;10.972;2023-09-18T09:25:29;26.30;99.90
44747;DHT22;30472;49.490;10.972;2023-09-18T09:27:57;27.30;99.90
44747;DHT22;30472;49.490;10.972;2023-09-18T09:30:25;27.30;99.90
44747;DHT22;30472;49.490;10.972;2023-09-18T09:32:53;27.40;99.90
44747;DHT22;30472;49.490;10.972;2023-09-18T09:35:27;27.60;99.90
44747;DHT22;30472;49.490;10.972;2023-09-18T09:37:58;27.40;99.90
44747;DHT22;30472;49.490;10.972;2023-09-18T09:40:26;27.60;99.90
44747;DHT22;30472;49.490;10.972;2023-09-18T09:42:56;27.70;99.90
44747;DHT22;30472;49.490;10.972;2023-09-18T09:45:31;27.40;99.90
44747;DHT22;30472;49.490;10.972;2023-09-18T09:48:01;27.50;99.90
44747;DHT22;30472;49.490;10.972;2023-09-18T09:50:26;27.20;99.90
44747;DHT22;30472;49.490;10.972;2023-09-18T09:52:53;26.70;99.90
44747;DHT22;30472;49.490;10.972;2023-09-18T09:55:28;26.60;99.90
44747;DHT22;30472;49.490;10.972;2023-09-18T09:58:01;26.50;99.90
44747;DHT22;30472;49.490;10.972;2023-09-18T10:00:49;26.10;99.90
44747;DHT22;30472;49.490;10.972;2023-09-18T10:03:17;26.00;99.90
44747;DHT22;30472;49.490;10.972;2023-09-18T10:05:46;26.30;99.90
44747;DHT22;30472;49.490;10.972;2023-09-18T10:08:16;26.10;99.90
44747;DHT22;30472;49.490;10.972;2023-09-18T10:10:50;26.20;99.90
44747;DHT22;30472;49.490;10.972;2023-09-18T10:13:20;26.00;99.90
44747;DHT22;30472;49.490;10.972;2023-09-18T10:15:51;25.70;99.90
44747;DHT22;30472;49.490;10.972;2023-09-18T10:20:51;25.80;99.90
44747;DHT22;30472;49.490;10.972;2023-09-18T10:23:50;25.50;99.90
44747;DHT22;30472;49.490;10.972;2023-09-18T10:26:23;25.40;99.90
44747;DHT22;30472;49.490;10.972;2023-09-18T10:28:51;25.70;99.90
44747;DHT22;30472;49.490;10.972;2023-09-18T10:31:22;26.00;99.90
44747;DHT22;30472;49.490;10.972;2023-09-18T10:33:48;26.00;99.90
44747;DHT22;30472;49.490;10.972;2023-09-18T10:36:16;26.10;99.90
44747;DHT22;30472;49.490;10.972;2023-09-18T10:38:44;26.30;99.90
44747;DHT22;30472;49.490;10.972;2023-09-18T10:41:15;26.20;99.90
44747;DHT22;30472;49.490;10.972;2023-09-18T10:43:44;26.10;99.90
44747;DHT22;30472;49.490;10.972;2023-09-18T10:46:11;25.70;99.90
44747;DHT22;30472;49.490;10.972;2023-09-18T10:48:42;25.60;99.90
44747;DHT22;30472;49.490;10.972;2023-09-18T10:51:09;25.50;99.90
44747;DHT22;30472;49.490;10.972;2023-09-18T10:53:35;25.50;99.90
44747;DHT22;30472;49.490;10.972;2023-09-18T10:56:02;25.40;99.90
44747;DHT22;30472;49.490;10.972;2023-09-18T10:58:30;25.60;99.90
44747;DHT22;30472;49.490;10.972;2023-09-18T11:00:56;25.50;99.90
44747;DHT22;30472;49.490;10.972;2023-09-18T11:03:24;25.10;99.90
44747;DHT22;30472;49.490;10.972;2023-09-18T11:06:06;25.20;99.90
44747;DHT22;30472;49.490;10.972;2023-09-18T11:11:12;25.10;99.90
44747;DHT22;30472;49.490;10.972;2023-09-18T11:13:47;24.80;99.90
44747;DHT22;30472;49.490;10.972;2023-09-18T11:18:54;24.60;99.90
44747;DHT22;30472;49.490;10.972;2023-09-18T11:21:32;24.40;99.90
44747;DHT22;30472;49.490;10.972;2023-09-18T11:24:19;24.30;99.90
44747;DHT22;30472;49.490;10.972;2023-09-18T11:26:46;24.00;99.90
44747;DHT22;30472;49.490;10.972;2023-09-18T11:29:18;23.80;99.90
44747;DHT22;30472;49.490;10.972;2023-09-18T11:31:48;23.90;99.90
44747;DHT22;30472;49.490;10.972;2023-09-18T11:34:26;23.70;99.90
44747;DHT22;30472;49.490;10.972;2023-09-18T11:36:54;23.70;99.90
44747;DHT22;30472;49.490;10.972;2023-09-18T11:39:37;23.70;99.90
44747;DHT22;30472;49.490;10.972;2023-09-18T11:42:21;23.70;99.90
44747;DHT22;30472;49.490;10.972;2023-09-18T11:44:52;23.60;99.90
44747;DHT22;30472;49.490;10.972;2023-09-18T11:47:24;23.60;99.90
44747;DHT22;30472;49.490;10.972;2023-09-18T11:49:58;23.50;99.90
44747;DHT22;30472;49.490;10.972;2023-09-18T11:52:29;23.40;99.90
44747;DHT22;30472;49.490;10.972;2023-09-18T11:54:59;23.30;99.90
44747;DHT22;30472;49.490;10.972;2023-09-18T11:57:27;23.30;99.90
44747;DHT22;30472;49.490;10.972;2023-09-18T11:59:54;23.30;99.90
44747;DHT22;30472;49.490;10.972;2023-09-18T12:02:30;23.20;99.90
44747;DHT22;30472;49.490;10.972;2023-09-18T12:05:17;23.00;99.90
44747;DHT22;30472;49.490;10.972;2023-09-18T12:07:45;22.40;99.90
44747;DHT22;30472;49.490;10.972;2023-09-18T12:10:15;22.10;99.90
44747;DHT22;30472;49.490;10.972;2023-09-18T12:12:42;21.80;99.90
44747;DHT22;30472;49.490;10.972;2023-09-18T12:15:11;21.60;99.90
44747;DHT22;30472;49.490;10.972;2023-09-18T12:17:37;21.50;99.90
44747;DHT22;30472;49.490;10.972;2023-09-18T12:20:03;21.30;99.90
44747;DHT22;30472;49.490;10.972;2023-09-18T12:22:31;21.20;99.90
44747;DHT22;30472;49.490;10.972;2023-09-18T12:27:36;20.70;99.90
44747;DHT22;30472;49.490;10.972;2023-09-18T12:30:03;20.40;99.90
44747;DHT22;30472;49.490;10.972;2023-09-18T12:32:30;20.20;99.90
44747;DHT22;30472;49.490;10.972;2023-09-18T12:34:58;19.80;99.90
44747;DHT22;30472;49.490;10.972;2023-09-18T12:37:24;19.70;99.90
44747;DHT22;30472;49.490;10.972;2023-09-18T12:39:50;19.50;99.90
44747;DHT22;30472;49.490;10.972;2023-09-18T12:42:18;19.60;99.90
44747;DHT22;30472;49.490;10.972;2023-09-18T12:44:47;19.60;99.90
44747;DHT22;30472;49.490;10.972;2023-09-18T12:47:14;19.50;99.90
44747;DHT22;30472;49.490;10.972;2023-09-18T12:49:39;19.40;99.90
44747;DHT22;30472;49.490;10.972;2023-09-18T12:52:05;19.40;99.90
44747;DHT22;30472;49.490;10.972;2023-09-18T12:57:06;19.30;99.90
44747;DHT22;30472;49.490;10.972;2023-09-18T12:59:33;19.30;99.90
44747;DHT22;30472;49.490;10.972;2023-09-18T13:01:59;19.30;99.90
44747;DHT22;30472;49.490;10.972;2023-09-18T13:04:25;19.30;99.90
44747;DHT22;30472;49.490;10.972;2023-09-18T13:07:09;19.40;99.90
44747;DHT22;30472;49.490;10.972;2023-09-18T13:09:35;19.30;99.90
44747;DHT22;30472;49.490;10.972;2023-09-18T13:12:01;19.20;99.90
44747;DHT22;30472;49.490;10.972;2023-09-18T13:14:26;19.10;99.90
44747;DHT22;30472;49.490;10.972;2023-09-18T13:16:52;18.90;99.90
44747;DHT22;30472;49.490;10.972;2023-09-18T13:19:18;19.00;99.90
44747;DHT22;30472;49.490;10.972;2023-09-18T13:21:48;18.80;99.90
44747;DHT22;30472;49.490;10.972;2023-09-18T13:24:28;18.80;99.90
44747;DHT22;30472;49.490;10.972;2023-09-18T13:26:55;18.70;99.90
44747;DHT22;30472;49.490;10.972;2023-09-18T13:29:21;18.50;99.90
44747;DHT22;30472;49.490;10.972;2023-09-18T13:31:47;18.40;99.90
44747;DHT22;30472;49.490;10.972;2023-09-18T13:34:13;18.40;99.90
44747;DHT22;30472;49.490;10.972;2023-09-18T13:36:38;18.40;99.90
44747;DHT22;30472;49.490;10.972;2023-09-18T13:39:04;18.30;99.90
44747;DHT22;30472;49.490;10.972;2023-09-18T13:41:30;18.20;99.90
44747;DHT22;30472;49.490;10.972;2023-09-18T13:43:56;18.10;99.90
44747;DHT22;30472;49.490;10.972;2023-09-18T13:46:22;18.10;99.90
44747;DHT22;30472;49.490;10.972;2023-09-18T13:48:49;18.00;99.90
44747;DHT22;30472;49.490;10.972;2023-09-18T13:51:14;18.00;99.90
44747;DHT22;30472;49.490;10.972;2023-09-18T13:53:40;18.00;99.90
44747;DHT22;30472;49.490;10.972;2023-09-18T13:56:07;17.90;99.90
44747;DHT22;30472;49.490;10.972;2023-09-18T13:58:32;17.90;99.90
44747;DHT22;30472;49.490;10.972;2023-09-18T14:00:59;17.90;99.90
44747;DHT22;30472;49.490;10.972;2023-09-18T14:03:24;17.90;99.90
44747;DHT22;30472;49.490;10.972;2023-09-18T14:05:50;17.90;99.90
44747;DHT22;30472;49.490;10.972;2023-09-18T14:08:17;17.90;99.90
44747;DHT22;30472;49.490;10.972;2023-09-18T14:10:43;17.90;99.90
44747;DHT22;30472;49.490;10.972;2023-09-18T14:13:09;17.90;99.90
44747;DHT22;30472;49.490;10.972;2023-09-18T14:15:35;17.80;99.90
44747;DHT22;30472;49.490;10.972;2023-09-18T14:18:02;17.80;99.90
44747;DHT22;30472;49.490;10.972;2023-09-18T14:20:28;17.70;99.90
44747;DHT22;30472;49.490;10.972;2023-09-18T14:22:54;17.70;99.90
44747;DHT22;30472;49.490;10.972;2023-09-18T14:25:20;17.70;99.90
44747;DHT22;30472;49.490;10.972;2023-09-18T14:27:48;17.70;99.90
44747;DHT22;30472;49.490;10.972;2023-09-18T14:30:13;17.60;99.90
44747;DHT22;30472;49.490;10.972;2023-09-18T14:32:39;17.70;99.90
44747;DHT22;30472;49.490;10.972;2023-09-18T14:35:05;17.60;99.90
44747;DHT22;30472;49.490;10.972;2023-09-18T14:37:33;17.60;99.90
44747;DHT22;30472;49.490;10.972;2023-09-18T14:39:59;17.60;99.90
44747;DHT22;30472;49.490;10.972;2023-09-18T14:42:25;17.50;99.90
44747;DHT22;30472;49.490;10.972;2023-09-18T14:44:51;17.50;99.90
44747;DHT22;30472;49.490;10.972;2023-09-18T14:47:16;17.50;99.90
44747;DHT22;30472;49.490;10.972;2023-09-18T14:49:42;17.50;99.90
44747;DHT22;30472;49.490;10.972;2023-09-18T14:52:12;17.50;99.90
44747;DHT22;30472;49.490;10.972;2023-09-18T14:54:38;17.60;99.90
44747;DHT22;30472;49.490;10.972;2023-09-18T14:57:05;17.70;99.90
44747;DHT22;30472;49.490;10.972;2023-09-18T14:59:31;17.90;99.90
44747;DHT22;30472;49.490;10.972;2023-09-18T15:01:57;17.90;99.90
44747;DHT22;30472;49.490;10.972;2023-09-18T15:04:24;18.00;99.90
44747;DHT22;30472;49.490;10.972;2023-09-18T15:06:49;17.90;99.90
44747;DHT22;30472;49.490;10.972;2023-09-18T15:09:15;17.90;99.90
44747;DHT22;30472;49.490;10.972;2023-09-18T15:11:43;18.00;99.90
44747;DHT22;30472;49.490;10.972;2023-09-18T15:14:09;18.00;99.90
44747;DHT22;30472;49.490;10.972;2023-09-18T15:16:35;18.00;99.90
44747;DHT22;30472;49.490;10.972;2023-09-18T15:19:01;18.20;99.90
44747;DHT22;30472;49.490;10.972;2023-09-18T15:21:29;18.70;99.90
44747;DHT22;30472;49.490;10.972;2023-09-18T15:23:55;18.70;99.90
44747;DHT22;30472;49.490;10.972;2023-09-18T15:26:21;18.80;99.90
44747;DHT22;30472;49.490;10.972;2023-09-18T15:28:46;18.60;99.90
44747;DHT22;30472;49.490;10.972;2023-09-18T15:31:12;18.80;99.90